Report METAR

 

LELL - Sabadell, Spain
Distance from station: E 18km
Dati ricevuti: 18/01/2019 10:30
Molto nuvoloso
Molto nuvoloso
 Vento da Variabile
Vento: Variabile 2 km/h
Temperatura: 6°C
P.to Rugiada: 3°C
Umidità: 81%
Barometro: 1019 hPa
Nuvole: Molto nuvoloso
Visibility: 9 km
Cloud details: Molto nuvoloso 610 m
2019/01/18 09:30 LELL 180930Z VRB01KT 9000 BKN020 06/03 Q1019
LEBL - Barcelona Airpor, Spain
Distance from station: SSE 33km
Dati ricevuti: 18/01/2019 10:30
Molto nuvoloso
Molto nuvoloso
 Vento da NNO
Vento: NNO 30 km/h, Raffica: 56 km/h
Temperatura: 7°C
Temperatura Vento: 3°C
P.to Rugiada: 4°C
Umidità: 81%
Barometro: 1019 hPa
Nuvole: Molto nuvoloso
Visibility: 9 km
Cloud details: Few Clouds 457 m
Parz. nuvoloso 732 m
Molto nuvoloso 1189 m
2019/01/18 09:30 LEBL 180930Z 33016G30KT 290V350 9000 FEW015 SCT024 BKN039 07/04 Q1019 NOSIG
LERS - Reus (civ/Mil), Spain
Distance from station: SO 75km
Dati ricevuti: 18/01/2019 10:30
Few Clouds
Few Clouds
 Vento da E
Vento: E 9 km/h
Temperatura: 7°C
Temperatura Vento: 6°C
P.to Rugiada: 2°C
Umidità: 71%
Barometro: 1018 hPa
Nuvole: Few Clouds
Visibility: 10 km
Cloud details: Few Clouds 914 m
2019/01/18 09:30 LERS 180930Z 09005KT 060V120 9999 FEW030 07/02 Q1018
 
LEGE - Gerona/Costa Bra, Spain
Distance from station: ENE 83km
Dati ricevuti: 18/01/2019 10:30
Patches of fog, Nuvoloso
Patches of fog, Nuvoloso
 Vento da NE
Vento: NE 9 km/h
Temperatura: 5°C
Temperatura Vento: 3°C
P.to Rugiada: 5°C
Umidità: 100%
Barometro: 1018 hPa
Summary: Patches of Fog
Nuvole: Molto nuvoloso
Visibility: 8 km
Cloud details: Molto nuvoloso 853 m
2019/01/18 09:30 LEGE 180930Z 04005KT 8000 BCFG BKN028 05/05 Q1018
LFMP - Perpignan/Rivesa, France
Distance from station: NNE 155km
Dati ricevuti: 18/01/2019 10:30
Few Clouds
Few Clouds
 Vento da NO
Vento: NO 19 km/h
Temperatura: 10°C
Temperatura Vento: 7°C
P.to Rugiada: 2°C
Umidità: 58%
Barometro: 1018 hPa
Nuvole: Few Clouds
Visibility: 10 km
Cloud details: Few Clouds 1128 m
2019/01/18 09:30 LFMP 180930Z AUTO 31010KT 290V350 9999 FEW037/// 10/02 Q1018 NOSIG
LFMK - Carcassonne/Salv, France
Distance from station: N 191km
Dati ricevuti: 18/01/2019 10:30
Sereno
Sereno
 Vento da O
Vento: O 17 km/h
Temperatura: 6°C
Temperatura Vento: 3°C
P.to Rugiada: 3°C
Umidità: 81%
Barometro: 1019 hPa
Summary: Sereno
Visibility: superiore a 10 km
2019/01/18 09:30 LFMK 180930Z AUTO 27009KT CAVOK 06/03 Q1019 NOSIG
 
LEHC - Huesca-Pirineos, Spain
Distance from station: ONO 193km
Dati ricevuti: 18/01/2019 10:30
Freezing fog, Coperto
Freezing fog, Coperto
 Vento da NE
Vento: NE 7 km/h
Temperatura: -2°C
Temperatura Vento: -6°C
P.to Rugiada: -2°C
Umidità: 100%
Barometro: 1018 hPa
Summary: Freezing Fog
Nuvole: Coperto
Visibility: 0 km
Cloud details: Coperto 61 m
2019/01/18 09:30 LEHC 180930Z 05004KT 010V070 0200 R30L/0350N FZFG VV002 M02/M02 Q1018
LFMU - Beziers/Vias, France
Distance from station: NNE 232km
Dati ricevuti: 18/01/2019 10:30
Few Clouds
Few Clouds
 Vento da O
Vento: O 15 km/h
Temperatura: 8°C
Temperatura Vento: 5°C
P.to Rugiada: 3°C
Umidità: 71%
Barometro: 1018 hPa
Nuvole: Few Clouds
Visibility: 10 km
Cloud details: Few Clouds 1433 m
2019/01/18 09:30 LFMU 180930Z AUTO 28008KT 9999 FEW047 08/03 Q1018 NOSIG
LEPA - Palma De Mallorc, Spain
Distance from station: SSE 233km
Dati ricevuti: 18/01/2019 10:30
Molto nuvoloso
Molto nuvoloso
 Vento da NE
Vento: NE 17 km/h
Temperatura: 10°C
Temperatura Vento: 8°C
P.to Rugiada: 9°C
Umidità: 94%
Barometro: 1018 hPa
Nuvole: Molto nuvoloso
Visibility: 10 km
Cloud details: Few Clouds 732 m
Molto nuvoloso 1829 m
2019/01/18 09:30 LEPA 180930Z 05009KT 9999 FEW024 BKN060 10/09 Q1018 NOSIG
 
LFBO - Toulouse/Blagnac, France
Distance from station: N 236km
Dati ricevuti: 18/01/2019 10:30
Molto nuvoloso
Molto nuvoloso
 Vento da Variabile
Vento: Variabile 6 km/h
Temperatura: 3°C
P.to Rugiada: 3°C
Umidità: 100%
Barometro: 1019 hPa
Nuvole: Molto nuvoloso
Visibility: 10 km
Cloud details: Few Clouds 701 m
Molto nuvoloso 1036 m
Molto nuvoloso 1524 m
2019/01/18 09:30 LFBO 180930Z AUTO VRB03KT 9999 FEW023 BKN034 BKN050 03/03 Q1019 NOSIG
LFBT - Tarbes/Ossun, France
Distance from station: NO 239km
Dati ricevuti: 18/01/2019 10:30
Sereno
Sereno
 Vento da SSE
Vento: SSE 7 km/h
Temperatura: 4°C
Temperatura Vento: 2°C
P.to Rugiada: 1°C
Umidità: 81%
Barometro: 1019 hPa
Summary: Sereno
Visibility: superiore a 10 km
2019/01/18 09:30 LFBT 180930Z AUTO 16004KT 130V190 CAVOK 04/01 Q1019 NOSIG
LEZG - Zaragoza (mil/Ci, Spain
Distance from station: O 242km
Dati ricevuti: 18/01/2019 10:30
Sereno
Sereno
 Vento da O
Vento: O 13 km/h
Temperatura: 6°C
Temperatura Vento: 3°C
P.to Rugiada: 1°C
Umidità: 71%
Barometro: 1019 hPa
Summary: Sereno
Visibility: superiore a 10 km
2019/01/18 09:30 LEZG 180930Z 28007KT 250V320 CAVOK 06/01 Q1019